メインページ
METAR-TAF:

METAR-TAF

空港 :

カウナカカイ, ハワイ州, アメリカ合衆国

緯度: 21-09N, 経度: 157-06W, 海抜: 138m

現時点の気象観測

当レポートは21分前の04:54(UTC)に作成
南東の風 7kt
気温 27°C
湿度 62%
気圧 1016 hPa
視程: 16.1km
晴天

METAR: PHMK 200454Z AUTO 14007KT 10SM CLR 27/19 A3001 RMK AO2 SLP161 T02670194 TSNO

時間: 19:15 (05:15 UTC)

予報

当レポートは2時間34分前の02:41(UTC)に作成
予報は20日の 03時(UTC)から 20日の 24時(UTC)まで有効
の風 8kt
視程: 10km
高度3000ftの雲はほとんどない
高度4000ftの雲は散在している
20日の 0600時(UTC)から
北/北東の風 5kt
視程: 10km
高度3000ftの雲はほとんどない
20日の 2000時(UTC)から
北東の風 11kt
視程: 10km
高度3000ftの雲はほとんどない
高度4500ftの雲は散在している

TAF: PHMK 200241Z 2003/2024 17008KT P6SM FEW030 SCT040 FM200600 03005KT P6SM FEW030 FM202000 04011KT P6SM FEW030 SCT045

4,000以上の空港の気象観測と天気予報(METAR報とTAF報)

利用可能な観測所は地図上に黄色い丸と赤い丸で示す。

丸の上にカーソルを重ねると観測所名を参照できる。

次にクリックすると気象観測と天気予報を参照できる。

マップの切り替え:黒色「×」印の緑ボタンをクリックして拡大、「-」印の緑ボタンをクリックして縮小、緑色の三角印をクリックして隣りの地図に切り替え


METAR-TAF: